sensor_id;sensor_type;location;lat;lon;timestamp;pressure;altitude;pressure_sealevel;temperature;humidity
38054;BME280;23859;50.672;7.164;2022-08-03T00:01:42;100746.16;;;20.17;78.85
38054;BME280;23859;50.672;7.164;2022-08-03T00:04:09;100747.34;;;20.08;79.45
38054;BME280;23859;50.672;7.164;2022-08-03T00:06:35;100745.66;;;20.07;79.90
38054;BME280;23859;50.672;7.164;2022-08-03T00:09:05;100725.69;;;20.02;79.98
38054;BME280;23859;50.672;7.164;2022-08-03T00:11:32;100740.75;;;20.17;80.31
38054;BME280;23859;50.672;7.164;2022-08-03T00:13:59;100738.97;;;20.24;79.11
38054;BME280;23859;50.672;7.164;2022-08-03T00:16:25;100737.25;;;20.16;79.94
38054;BME280;23859;50.672;7.164;2022-08-03T00:18:51;100738.66;;;20.12;80.45
38054;BME280;23859;50.672;7.164;2022-08-03T00:21:17;100737.56;;;20.07;80.81
38054;BME280;23859;50.672;7.164;2022-08-03T00:23:43;100725.88;;;20.00;80.76
38054;BME280;23859;50.672;7.164;2022-08-03T00:26:09;100728.75;;;19.99;81.42
38054;BME280;23859;50.672;7.164;2022-08-03T00:28:35;100728.88;;;19.91;81.65
38054;BME280;23859;50.672;7.164;2022-08-03T00:31:01;100723.00;;;19.87;81.26
38054;BME280;23859;50.672;7.164;2022-08-03T00:33:27;100730.66;;;19.84;81.03
38054;BME280;23859;50.672;7.164;2022-08-03T00:35:54;100731.94;;;19.88;80.35
38054;BME280;23859;50.672;7.164;2022-08-03T00:38:20;100728.00;;;19.90;80.44
38054;BME280;23859;50.672;7.164;2022-08-03T00:40:46;100724.16;;;19.93;80.39
38054;BME280;23859;50.672;7.164;2022-08-03T00:43:12;100728.63;;;20.07;80.12
38054;BME280;23859;50.672;7.164;2022-08-03T00:45:40;100727.94;;;19.98;80.15
38054;BME280;23859;50.672;7.164;2022-08-03T00:48:08;100726.38;;;19.89;80.34
38054;BME280;23859;50.672;7.164;2022-08-03T00:50:39;100725.91;;;19.86;80.25
38054;BME280;23859;50.672;7.164;2022-08-03T00:53:06;100722.69;;;19.76;81.17
38054;BME280;23859;50.672;7.164;2022-08-03T00:55:35;100720.81;;;19.76;80.83
38054;BME280;23859;50.672;7.164;2022-08-03T00:58:02;100721.53;;;19.85;80.41
38054;BME280;23859;50.672;7.164;2022-08-03T01:00:32;100714.91;;;19.87;79.25
38054;BME280;23859;50.672;7.164;2022-08-03T01:02:58;100715.75;;;19.88;79.67
38054;BME280;23859;50.672;7.164;2022-08-03T01:05:24;100728.09;;;19.76;80.40
38054;BME280;23859;50.672;7.164;2022-08-03T01:08:05;100721.66;;;19.77;80.18
38054;BME280;23859;50.672;7.164;2022-08-03T01:11:05;100712.78;;;19.83;79.77
38054;BME280;23859;50.672;7.164;2022-08-03T01:16:23;100716.59;;;19.88;80.31
38054;BME280;23859;50.672;7.164;2022-08-03T01:19:24;100707.75;;;19.73;81.02
38054;BME280;23859;50.672;7.164;2022-08-03T01:22:09;100714.00;;;19.59;81.79
38054;BME280;23859;50.672;7.164;2022-08-03T01:24:48;100712.16;;;19.60;82.02
38054;BME280;23859;50.672;7.164;2022-08-03T01:27:22;100706.75;;;19.60;81.21
38054;BME280;23859;50.672;7.164;2022-08-03T01:30:30;100706.22;;;19.50;82.11
38054;BME280;23859;50.672;7.164;2022-08-03T01:33:13;100705.31;;;19.43;82.19
38054;BME280;23859;50.672;7.164;2022-08-03T01:36:11;100707.44;;;19.47;82.14
38054;BME280;23859;50.672;7.164;2022-08-03T01:38:45;100705.69;;;19.40;82.15
38054;BME280;23859;50.672;7.164;2022-08-03T01:41:18;100714.44;;;19.42;82.55
38054;BME280;23859;50.672;7.164;2022-08-03T01:43:47;100706.16;;;19.43;82.34
38054;BME280;23859;50.672;7.164;2022-08-03T01:46:17;100711.59;;;19.50;83.14
38054;BME280;23859;50.672;7.164;2022-08-03T01:48:47;100699.16;;;19.49;82.87
38054;BME280;23859;50.672;7.164;2022-08-03T01:51:16;100703.44;;;19.43;83.19
38054;BME280;23859;50.672;7.164;2022-08-03T01:53:44;100706.81;;;19.45;82.75
38054;BME280;23859;50.672;7.164;2022-08-03T01:56:12;100702.03;;;19.47;82.08
38054;BME280;23859;50.672;7.164;2022-08-03T01:58:39;100700.81;;;19.50;81.59
38054;BME280;23859;50.672;7.164;2022-08-03T02:01:06;100706.88;;;19.52;82.13
38054;BME280;23859;50.672;7.164;2022-08-03T02:03:37;100696.28;;;19.50;82.54
38054;BME280;23859;50.672;7.164;2022-08-03T02:06:05;100693.69;;;19.42;81.65
38054;BME280;23859;50.672;7.164;2022-08-03T02:08:32;100692.03;;;19.41;81.76
38054;BME280;23859;50.672;7.164;2022-08-03T02:10:58;100693.25;;;19.39;81.90
38054;BME280;23859;50.672;7.164;2022-08-03T02:13:26;100694.16;;;19.46;82.19
38054;BME280;23859;50.672;7.164;2022-08-03T02:15:53;100698.25;;;19.42;82.47
38054;BME280;23859;50.672;7.164;2022-08-03T02:18:22;100697.72;;;19.32;82.27
38054;BME280;23859;50.672;7.164;2022-08-03T02:20:49;100698.47;;;19.26;82.83
38054;BME280;23859;50.672;7.164;2022-08-03T02:23:16;100698.88;;;19.23;82.99
38054;BME280;23859;50.672;7.164;2022-08-03T02:25:46;100693.97;;;19.12;83.53
38054;BME280;23859;50.672;7.164;2022-08-03T02:28:21;100704.16;;;19.02;84.06
38054;BME280;23859;50.672;7.164;2022-08-03T02:30:53;100702.03;;;18.98;84.71
38054;BME280;23859;50.672;7.164;2022-08-03T02:33:40;100698.13;;;19.00;84.60
38054;BME280;23859;50.672;7.164;2022-08-03T02:36:08;100697.75;;;19.03;84.79
38054;BME280;23859;50.672;7.164;2022-08-03T02:38:40;100702.41;;;19.09;84.03
38054;BME280;23859;50.672;7.164;2022-08-03T02:41:12;100695.00;;;19.11;83.93
38054;BME280;23859;50.672;7.164;2022-08-03T02:43:39;100689.22;;;19.14;83.73
38054;BME280;23859;50.672;7.164;2022-08-03T02:46:09;100690.50;;;19.18;83.19
38054;BME280;23859;50.672;7.164;2022-08-03T02:48:40;100689.47;;;19.19;83.16
38054;BME280;23859;50.672;7.164;2022-08-03T02:51:08;100686.50;;;19.29;82.13
38054;BME280;23859;50.672;7.164;2022-08-03T02:53:35;100684.34;;;19.24;81.67
38054;BME280;23859;50.672;7.164;2022-08-03T02:56:02;100682.53;;;19.10;82.33
38054;BME280;23859;50.672;7.164;2022-08-03T02:58:30;100687.34;;;19.00;83.43
38054;BME280;23859;50.672;7.164;2022-08-03T03:00:57;100687.16;;;18.87;84.36
38054;BME280;23859;50.672;7.164;2022-08-03T03:03:24;100681.50;;;18.82;85.18
38054;BME280;23859;50.672;7.164;2022-08-03T03:05:51;100686.06;;;18.82;84.52
38054;BME280;23859;50.672;7.164;2022-08-03T03:08:19;100684.19;;;18.82;85.19
38054;BME280;23859;50.672;7.164;2022-08-03T03:10:46;100682.91;;;18.78;85.29
38054;BME280;23859;50.672;7.164;2022-08-03T03:13:17;100692.19;;;18.90;84.86
38054;BME280;23859;50.672;7.164;2022-08-03T03:15:44;100683.06;;;18.91;85.41
38054;BME280;23859;50.672;7.164;2022-08-03T03:18:12;100696.00;;;19.10;84.95
38054;BME280;23859;50.672;7.164;2022-08-03T03:20:39;100689.22;;;19.14;84.99
38054;BME280;23859;50.672;7.164;2022-08-03T03:23:07;100684.94;;;19.20;84.72
38054;BME280;23859;50.672;7.164;2022-08-03T03:25:34;100691.16;;;19.20;85.01
38054;BME280;23859;50.672;7.164;2022-08-03T03:28:01;100686.91;;;19.11;85.44
38054;BME280;23859;50.672;7.164;2022-08-03T03:30:28;100695.19;;;19.10;86.12
38054;BME280;23859;50.672;7.164;2022-08-03T03:32:55;100692.66;;;19.08;85.09
38054;BME280;23859;50.672;7.164;2022-08-03T03:35:22;100687.53;;;19.13;85.08
38054;BME280;23859;50.672;7.164;2022-08-03T03:37:48;100695.03;;;19.03;85.15
38054;BME280;23859;50.672;7.164;2022-08-03T03:40:14;100692.75;;;19.00;85.33
38054;BME280;23859;50.672;7.164;2022-08-03T03:42:40;100691.81;;;18.93;85.88
38054;BME280;23859;50.672;7.164;2022-08-03T03:45:07;100691.34;;;18.90;86.56
38054;BME280;23859;50.672;7.164;2022-08-03T03:47:34;100694.88;;;18.90;86.70
38054;BME280;23859;50.672;7.164;2022-08-03T03:50:04;100694.69;;;18.92;86.84
38054;BME280;23859;50.672;7.164;2022-08-03T03:52:32;100686.41;;;18.93;87.11
38054;BME280;23859;50.672;7.164;2022-08-03T03:54:58;100696.09;;;18.88;87.61
38054;BME280;23859;50.672;7.164;2022-08-03T03:57:24;100692.47;;;18.95;87.38
38054;BME280;23859;50.672;7.164;2022-08-03T03:59:51;100691.44;;;18.96;87.66
38054;BME280;23859;50.672;7.164;2022-08-03T04:02:17;100692.56;;;18.87;87.95
38054;BME280;23859;50.672;7.164;2022-08-03T04:04:43;100689.59;;;18.82;88.27
38054;BME280;23859;50.672;7.164;2022-08-03T04:07:45;100685.50;;;18.86;87.63
38054;BME280;23859;50.672;7.164;2022-08-03T04:10:33;100685.88;;;18.83;87.76
38054;BME280;23859;50.672;7.164;2022-08-03T04:13:20;100686.53;;;18.71;87.20
38054;BME280;23859;50.672;7.164;2022-08-03T04:15:48;100688.09;;;18.66;87.23
38054;BME280;23859;50.672;7.164;2022-08-03T04:18:16;100675.66;;;18.65;87.47
38054;BME280;23859;50.672;7.164;2022-08-03T04:20:46;100684.41;;;18.67;87.72
38054;BME280;23859;50.672;7.164;2022-08-03T04:23:15;100686.53;;;18.71;87.74
38054;BME280;23859;50.672;7.164;2022-08-03T04:25:43;100684.75;;;18.92;85.93
38054;BME280;23859;50.672;7.164;2022-08-03T04:28:11;100693.66;;;19.07;84.86
38054;BME280;23859;50.672;7.164;2022-08-03T04:30:39;100686.53;;;18.85;84.78
38054;BME280;23859;50.672;7.164;2022-08-03T04:33:13;100693.97;;;18.83;85.54
38054;BME280;23859;50.672;7.164;2022-08-03T04:35:42;100695.63;;;18.84;85.97
38054;BME280;23859;50.672;7.164;2022-08-03T04:38:13;100700.56;;;18.95;85.25
38054;BME280;23859;50.672;7.164;2022-08-03T04:40:41;100698.50;;;18.97;84.87
38054;BME280;23859;50.672;7.164;2022-08-03T04:43:10;100689.78;;;18.95;85.00
38054;BME280;23859;50.672;7.164;2022-08-03T04:45:38;100694.50;;;18.93;85.28
38054;BME280;23859;50.672;7.164;2022-08-03T04:48:04;100701.56;;;18.94;85.23
38054;BME280;23859;50.672;7.164;2022-08-03T04:50:31;100703.88;;;18.97;85.25
38054;BME280;23859;50.672;7.164;2022-08-03T04:52:57;100699.81;;;19.01;85.54
38054;BME280;23859;50.672;7.164;2022-08-03T04:55:28;100702.50;;;19.01;86.01
38054;BME280;23859;50.672;7.164;2022-08-03T04:57:54;100698.09;;;19.29;84.65
38054;BME280;23859;50.672;7.164;2022-08-03T05:00:21;100704.91;;;19.25;85.48
38054;BME280;23859;50.672;7.164;2022-08-03T05:02:47;100703.59;;;19.36;85.71
38054;BME280;23859;50.672;7.164;2022-08-03T05:05:13;100701.59;;;19.44;85.54
38054;BME280;23859;50.672;7.164;2022-08-03T05:07:41;100700.28;;;19.40;85.80
38054;BME280;23859;50.672;7.164;2022-08-03T05:10:08;100703.19;;;19.38;86.14
38054;BME280;23859;50.672;7.164;2022-08-03T05:12:35;100706.16;;;19.43;85.75
38054;BME280;23859;50.672;7.164;2022-08-03T05:15:01;100701.22;;;19.47;85.79
38054;BME280;23859;50.672;7.164;2022-08-03T05:17:28;100709.56;;;19.52;85.71
38054;BME280;23859;50.672;7.164;2022-08-03T05:19:55;100712.53;;;19.57;85.55
38054;BME280;23859;50.672;7.164;2022-08-03T05:22:21;100600.22;;;18.93;85.28
38054;BME280;23859;50.672;7.164;2022-08-03T05:24:48;100707.03;;;19.65;85.30
38054;BME280;23859;50.672;7.164;2022-08-03T05:27:14;100716.91;;;19.79;84.44
38054;BME280;23859;50.672;7.164;2022-08-03T05:29:48;100712.22;;;19.87;83.64
38054;BME280;23859;50.672;7.164;2022-08-03T05:32:15;100709.75;;;20.07;82.71
38054;BME280;23859;50.672;7.164;2022-08-03T05:34:42;100714.03;;;20.22;81.93
38054;BME280;23859;50.672;7.164;2022-08-03T05:37:08;100713.97;;;20.15;82.41
38054;BME280;23859;50.672;7.164;2022-08-03T05:39:35;100712.28;;;20.14;82.43
38054;BME280;23859;50.672;7.164;2022-08-03T05:42:01;100714.88;;;20.22;82.04
38054;BME280;23859;50.672;7.164;2022-08-03T05:44:27;100714.16;;;20.41;80.93
38054;BME280;23859;50.672;7.164;2022-08-03T05:46:54;100709.31;;;20.58;80.06
38054;BME280;23859;50.672;7.164;2022-08-03T05:49:20;100711.63;;;20.61;79.80
38054;BME280;23859;50.672;7.164;2022-08-03T05:51:46;100710.50;;;20.76;79.20
38054;BME280;23859;50.672;7.164;2022-08-03T05:54:12;100702.50;;;20.89;77.85
38054;BME280;23859;50.672;7.164;2022-08-03T05:56:38;100708.81;;;21.02;76.74
38054;BME280;23859;50.672;7.164;2022-08-03T05:59:07;100711.97;;;21.19;76.56
38054;BME280;23859;50.672;7.164;2022-08-03T06:01:33;100703.50;;;21.28;76.52
38054;BME280;23859;50.672;7.164;2022-08-03T06:03:59;100713.19;;;21.56;74.57
38054;BME280;23859;50.672;7.164;2022-08-03T06:06:25;100705.72;;;21.71;73.60
38054;BME280;23859;50.672;7.164;2022-08-03T06:08:51;100705.72;;;21.58;74.33
38054;BME280;23859;50.672;7.164;2022-08-03T06:11:17;100705.28;;;21.61;74.59
38054;BME280;23859;50.672;7.164;2022-08-03T06:13:43;100706.16;;;21.68;74.16
38054;BME280;23859;50.672;7.164;2022-08-03T06:16:10;100704.53;;;21.87;72.96
38054;BME280;23859;50.672;7.164;2022-08-03T06:18:37;100705.38;;;22.07;72.63
38054;BME280;23859;50.672;7.164;2022-08-03T06:21:05;100709.13;;;22.25;70.96
38054;BME280;23859;50.672;7.164;2022-08-03T06:23:31;100707.50;;;22.37;70.45
38054;BME280;23859;50.672;7.164;2022-08-03T06:25:57;100698.09;;;22.46;69.92
38054;BME280;23859;50.672;7.164;2022-08-03T06:28:23;100703.13;;;22.49;68.82
38054;BME280;23859;50.672;7.164;2022-08-03T06:30:49;100701.19;;;22.56;68.65
38054;BME280;23859;50.672;7.164;2022-08-03T06:33:15;100705.69;;;23.07;66.58
38054;BME280;23859;50.672;7.164;2022-08-03T06:35:41;100697.84;;;23.43;64.79
38054;BME280;23859;50.672;7.164;2022-08-03T06:38:07;100707.50;;;23.69;64.38
38054;BME280;23859;50.672;7.164;2022-08-03T06:40:35;100707.97;;;23.60;64.69
38054;BME280;23859;50.672;7.164;2022-08-03T06:43:06;100707.16;;;23.53;63.72
38054;BME280;23859;50.672;7.164;2022-08-03T06:45:32;100710.94;;;23.52;63.84
38054;BME280;23859;50.672;7.164;2022-08-03T06:48:05;100718.44;;;23.56;63.78
38054;BME280;23859;50.672;7.164;2022-08-03T06:50:32;100719.16;;;23.83;63.32
38054;BME280;23859;50.672;7.164;2022-08-03T06:52:58;100715.81;;;23.81;62.10
38054;BME280;23859;50.672;7.164;2022-08-03T06:55:25;100712.94;;;23.76;62.31
38054;BME280;23859;50.672;7.164;2022-08-03T06:57:51;100710.41;;;23.68;62.41
38054;BME280;23859;50.672;7.164;2022-08-03T07:00:18;100722.13;;;23.68;63.24
38054;BME280;23859;50.672;7.164;2022-08-03T07:02:44;100720.25;;;24.06;62.02
38054;BME280;23859;50.672;7.164;2022-08-03T07:05:10;100720.97;;;24.19;61.12
38054;BME280;23859;50.672;7.164;2022-08-03T07:07:37;100719.00;;;24.33;60.90
38054;BME280;23859;50.672;7.164;2022-08-03T07:10:05;100713.19;;;24.54;59.91
38054;BME280;23859;50.672;7.164;2022-08-03T07:12:32;100709.34;;;24.61;58.85
38054;BME280;23859;50.672;7.164;2022-08-03T07:14:59;100707.94;;;24.94;58.35
38054;BME280;23859;50.672;7.164;2022-08-03T07:17:26;100712.94;;;24.97;57.96
38054;BME280;23859;50.672;7.164;2022-08-03T07:19:52;100709.78;;;25.18;57.53
38054;BME280;23859;50.672;7.164;2022-08-03T07:22:18;100707.88;;;26.24;55.13
38054;BME280;23859;50.672;7.164;2022-08-03T07:24:44;100706.00;;;27.67;49.57
38054;BME280;23859;50.672;7.164;2022-08-03T07:27:12;100707.94;;;28.76;48.22
38054;BME280;23859;50.672;7.164;2022-08-03T07:29:38;100714.19;;;29.95;44.44
38054;BME280;23859;50.672;7.164;2022-08-03T07:32:04;100709.47;;;31.30;41.71
38054;BME280;23859;50.672;7.164;2022-08-03T07:34:31;100705.28;;;31.99;39.99
38054;BME280;23859;50.672;7.164;2022-08-03T07:36:57;100703.50;;;33.57;38.39
38054;BME280;23859;50.672;7.164;2022-08-03T07:39:23;100647.41;;;33.13;37.42
38054;BME280;23859;50.672;7.164;2022-08-03T07:41:49;100713.53;;;34.29;36.54
38054;BME280;23859;50.672;7.164;2022-08-03T07:44:17;100722.03;;;34.71;35.53
38054;BME280;23859;50.672;7.164;2022-08-03T07:46:43;100720.41;;;34.98;34.99
38054;BME280;23859;50.672;7.164;2022-08-03T07:49:09;100724.56;;;34.96;34.78
38054;BME280;23859;50.672;7.164;2022-08-03T07:51:35;100728.53;;;34.85;34.57
38054;BME280;23859;50.672;7.164;2022-08-03T07:54:02;100715.63;;;35.04;34.60
38054;BME280;23859;50.672;7.164;2022-08-03T07:56:28;100719.81;;;35.01;33.95
38054;BME280;23859;50.672;7.164;2022-08-03T07:58:55;100718.25;;;34.62;35.53
38054;BME280;23859;50.672;7.164;2022-08-03T08:01:21;100672.94;;;34.86;34.34
38054;BME280;23859;50.672;7.164;2022-08-03T08:03:49;100725.91;;;36.60;32.67
38054;BME280;23859;50.672;7.164;2022-08-03T08:06:15;100715.88;;;36.14;32.95
38054;BME280;23859;50.672;7.164;2022-08-03T08:08:42;100714.50;;;36.11;33.19
38054;BME280;23859;50.672;7.164;2022-08-03T08:11:09;100711.25;;;34.36;35.27
38054;BME280;23859;50.672;7.164;2022-08-03T08:13:35;100712.53;;;32.64;38.72
38054;BME280;23859;50.672;7.164;2022-08-03T08:16:03;100703.63;;;31.88;39.77
38054;BME280;23859;50.672;7.164;2022-08-03T08:18:30;100709.16;;;31.22;41.49
38054;BME280;23859;50.672;7.164;2022-08-03T08:20:56;100709.28;;;30.59;42.67
38054;BME280;23859;50.672;7.164;2022-08-03T08:23:22;100698.25;;;29.97;43.49
38054;BME280;23859;50.672;7.164;2022-08-03T08:25:50;100698.81;;;29.72;44.57
38054;BME280;23859;50.672;7.164;2022-08-03T08:28:20;100699.00;;;29.66;44.64
38054;BME280;23859;50.672;7.164;2022-08-03T08:30:47;100703.44;;;29.46;45.94
38054;BME280;23859;50.672;7.164;2022-08-03T08:33:13;100697.84;;;30.10;44.33
38054;BME280;23859;50.672;7.164;2022-08-03T08:35:39;100696.72;;;31.09;42.32
38054;BME280;23859;50.672;7.164;2022-08-03T08:38:05;100696.41;;;31.01;42.78
38054;BME280;23859;50.672;7.164;2022-08-03T08:40:32;100693.75;;;30.80;42.40
38054;BME280;23859;50.672;7.164;2022-08-03T08:42:58;100686.53;;;30.69;42.95
38054;BME280;23859;50.672;7.164;2022-08-03T08:45:24;100685.63;;;30.95;42.68
38054;BME280;23859;50.672;7.164;2022-08-03T08:47:50;100692.47;;;30.51;43.30
38054;BME280;23859;50.672;7.164;2022-08-03T08:50:19;100697.88;;;30.41;44.04
38054;BME280;23859;50.672;7.164;2022-08-03T08:52:47;100696.13;;;30.30;44.12
38054;BME280;23859;50.672;7.164;2022-08-03T08:55:19;100707.25;;;30.45;43.99
38054;BME280;23859;50.672;7.164;2022-08-03T08:57:51;100703.47;;;30.51;43.10
38054;BME280;23859;50.672;7.164;2022-08-03T09:00:18;100693.94;;;31.00;42.78
38054;BME280;23859;50.672;7.164;2022-08-03T09:02:45;100695.03;;;31.04;41.58
38054;BME280;23859;50.672;7.164;2022-08-03T09:05:13;100693.94;;;31.56;40.19
38054;BME280;23859;50.672;7.164;2022-08-03T09:07:40;100695.16;;;32.59;38.27
38054;BME280;23859;50.672;7.164;2022-08-03T09:10:07;100689.38;;;32.16;38.83
38054;BME280;23859;50.672;7.164;2022-08-03T09:12:40;100694.25;;;31.79;39.78
38054;BME280;23859;50.672;7.164;2022-08-03T09:15:26;100684.84;;;31.60;40.68
38054;BME280;23859;50.672;7.164;2022-08-03T09:17:58;100684.75;;;31.40;40.90
38054;BME280;23859;50.672;7.164;2022-08-03T09:20:26;100688.22;;;31.16;41.19
38054;BME280;23859;50.672;7.164;2022-08-03T09:23:08;100684.44;;;30.86;41.45
38054;BME280;23859;50.672;7.164;2022-08-03T09:25:40;100683.47;;;31.02;41.05
38054;BME280;23859;50.672;7.164;2022-08-03T09:28:16;100675.09;;;30.82;40.63
38054;BME280;23859;50.672;7.164;2022-08-03T09:30:56;100675.53;;;31.81;39.78
38054;BME280;23859;50.672;7.164;2022-08-03T09:33:23;100680.59;;;32.29;38.97
38054;BME280;23859;50.672;7.164;2022-08-03T09:35:49;100679.75;;;32.03;39.03
38054;BME280;23859;50.672;7.164;2022-08-03T09:38:17;100684.97;;;32.05;38.97
38054;BME280;23859;50.672;7.164;2022-08-03T09:40:44;100679.34;;;31.60;39.77
38054;BME280;23859;50.672;7.164;2022-08-03T09:43:11;100678.69;;;31.43;39.93
38054;BME280;23859;50.672;7.164;2022-08-03T09:45:38;100674.19;;;30.71;41.09
38054;BME280;23859;50.672;7.164;2022-08-03T09:48:26;100673.72;;;30.43;41.65
38054;BME280;23859;50.672;7.164;2022-08-03T09:50:56;100673.00;;;30.57;41.44
38054;BME280;23859;50.672;7.164;2022-08-03T09:53:23;100670.09;;;30.74;41.23
38054;BME280;23859;50.672;7.164;2022-08-03T09:55:51;100669.50;;;30.62;40.24
38054;BME280;23859;50.672;7.164;2022-08-03T09:58:19;100667.19;;;30.90;39.52
38054;BME280;23859;50.672;7.164;2022-08-03T10:03:22;100670.31;;;31.08;40.07
38054;BME280;23859;50.672;7.164;2022-08-03T10:05:49;100668.78;;;31.32;38.99
38054;BME280;23859;50.672;7.164;2022-08-03T10:08:16;100668.84;;;31.47;38.77
38054;BME280;23859;50.672;7.164;2022-08-03T10:10:44;100670.00;;;31.71;39.05
38054;BME280;23859;50.672;7.164;2022-08-03T10:13:13;100664.03;;;32.04;38.08
38054;BME280;23859;50.672;7.164;2022-08-03T10:15:39;100664.53;;;31.81;38.46
38054;BME280;23859;50.672;7.164;2022-08-03T10:18:06;100663.34;;;31.47;39.29
38054;BME280;23859;50.672;7.164;2022-08-03T10:20:36;100652.41;;;31.62;39.22
38054;BME280;23859;50.672;7.164;2022-08-03T10:23:07;100655.72;;;31.64;38.82
38054;BME280;23859;50.672;7.164;2022-08-03T10:25:37;100653.09;;;31.23;39.25
38054;BME280;23859;50.672;7.164;2022-08-03T10:28:06;100653.91;;;31.28;39.98
38054;BME280;23859;50.672;7.164;2022-08-03T10:30:35;100629.75;;;31.40;39.90
38054;BME280;23859;50.672;7.164;2022-08-03T10:33:12;100643.59;;;31.70;40.00
38054;BME280;23859;50.672;7.164;2022-08-03T10:35:41;100644.75;;;31.94;40.21
38054;BME280;23859;50.672;7.164;2022-08-03T10:38:15;100643.41;;;32.11;38.36
38054;BME280;23859;50.672;7.164;2022-08-03T10:40:42;100637.34;;;32.14;38.47
38054;BME280;23859;50.672;7.164;2022-08-03T10:43:11;100641.50;;;32.02;38.94
38054;BME280;23859;50.672;7.164;2022-08-03T10:45:43;100634.31;;;32.11;38.99
38054;BME280;23859;50.672;7.164;2022-08-03T10:48:10;100631.53;;;32.31;38.76
38054;BME280;23859;50.672;7.164;2022-08-03T10:50:37;100610.06;;;32.38;39.10
38054;BME280;23859;50.672;7.164;2022-08-03T10:53:05;100622.75;;;32.34;38.63
38054;BME280;23859;50.672;7.164;2022-08-03T10:55:39;100621.25;;;32.86;36.09
38054;BME280;23859;50.672;7.164;2022-08-03T11:01:18;100617.94;;;32.89;37.41
38054;BME280;23859;50.672;7.164;2022-08-03T11:06:23;100616.38;;;32.38;37.27
38054;BME280;23859;50.672;7.164;2022-08-03T11:11:40;100598.31;;;33.00;37.61
38054;BME280;23859;50.672;7.164;2022-08-03T11:14:14;100604.56;;;33.30;36.90
38054;BME280;23859;50.672;7.164;2022-08-03T11:17:06;100595.97;;;33.32;36.22
38054;BME280;23859;50.672;7.164;2022-08-03T11:19:50;100587.66;;;33.37;35.76
38054;BME280;23859;50.672;7.164;2022-08-03T11:22:17;100598.53;;;33.72;35.10
38054;BME280;23859;50.672;7.164;2022-08-03T11:30:07;100592.34;;;37.74;30.20
38054;BME280;23859;50.672;7.164;2022-08-03T11:43:02;100590.66;;;38.60;28.02
38054;BME280;23859;50.672;7.164;2022-08-03T11:45:29;100587.50;;;36.32;31.13
38054;BME280;23859;50.672;7.164;2022-08-03T11:47:56;100595.63;;;35.78;31.81
38054;BME280;23859;50.672;7.164;2022-08-03T11:50:25;100584.84;;;35.22;33.15
38054;BME280;23859;50.672;7.164;2022-08-03T11:52:51;100581.84;;;34.95;33.36
38054;BME280;23859;50.672;7.164;2022-08-03T11:55:19;100582.94;;;34.47;34.31
38054;BME280;23859;50.672;7.164;2022-08-03T11:57:47;100586.19;;;34.26;35.02
38054;BME280;23859;50.672;7.164;2022-08-03T12:00:20;100576.69;;;34.37;34.52
38054;BME280;23859;50.672;7.164;2022-08-03T12:03:04;100577.03;;;34.30;34.24
38054;BME280;23859;50.672;7.164;2022-08-03T12:05:42;100570.78;;;34.95;32.84
38054;BME280;23859;50.672;7.164;2022-08-03T12:08:09;100567.13;;;35.78;32.04
38054;BME280;23859;50.672;7.164;2022-08-03T12:10:36;100575.69;;;36.13;30.86
38054;BME280;23859;50.672;7.164;2022-08-03T12:13:04;100572.50;;;37.53;29.33
38054;BME280;23859;50.672;7.164;2022-08-03T12:15:33;100569.72;;;38.10;29.36
38054;BME280;23859;50.672;7.164;2022-08-03T12:18:07;100566.75;;;37.01;30.79
38054;BME280;23859;50.672;7.164;2022-08-03T12:20:37;100562.31;;;37.00;30.27
38054;BME280;23859;50.672;7.164;2022-08-03T12:23:04;100558.50;;;35.79;32.07
38054;BME280;23859;50.672;7.164;2022-08-03T12:25:32;100566.50;;;35.44;32.78
38054;BME280;23859;50.672;7.164;2022-08-03T12:28:12;100567.91;;;33.68;34.39
38054;BME280;23859;50.672;7.164;2022-08-03T12:30:41;100562.22;;;33.88;34.84
38054;BME280;23859;50.672;7.164;2022-08-03T12:33:27;100563.28;;;33.59;35.46
38054;BME280;23859;50.672;7.164;2022-08-03T12:38:32;100566.50;;;33.71;34.16
38054;BME280;23859;50.672;7.164;2022-08-03T12:41:09;100561.56;;;33.24;35.12
38054;BME280;23859;50.672;7.164;2022-08-03T12:43:47;100559.59;;;33.30;35.87
38054;BME280;23859;50.672;7.164;2022-08-03T12:46:16;100560.81;;;33.14;35.28
38054;BME280;23859;50.672;7.164;2022-08-03T12:51:29;100557.63;;;33.35;35.08
38054;BME280;23859;50.672;7.164;2022-08-03T12:53:57;100546.34;;;33.32;35.26
38054;BME280;23859;50.672;7.164;2022-08-03T12:56:23;100546.47;;;33.55;35.26
38054;BME280;23859;50.672;7.164;2022-08-03T12:58:50;100551.19;;;33.50;34.77
38054;BME280;23859;50.672;7.164;2022-08-03T13:01:16;100553.72;;;33.41;35.26
38054;BME280;23859;50.672;7.164;2022-08-03T13:03:47;100549.13;;;33.27;34.94
38054;BME280;23859;50.672;7.164;2022-08-03T13:06:15;100547.66;;;32.91;35.91
38054;BME280;23859;50.672;7.164;2022-08-03T13:08:42;100551.81;;;32.89;35.40
38054;BME280;23859;50.672;7.164;2022-08-03T13:11:25;100552.06;;;32.92;35.12
38054;BME280;23859;50.672;7.164;2022-08-03T13:13:53;100548.00;;;33.33;35.51
38054;BME280;23859;50.672;7.164;2022-08-03T13:16:21;100547.84;;;33.53;35.66
38054;BME280;23859;50.672;7.164;2022-08-03T13:18:50;100547.69;;;33.78;35.66
38054;BME280;23859;50.672;7.164;2022-08-03T13:21:18;100547.94;;;33.38;34.59
38054;BME280;23859;50.672;7.164;2022-08-03T13:23:45;100547.00;;;33.90;33.89
38054;BME280;23859;50.672;7.164;2022-08-03T13:26:12;100537.22;;;33.75;33.94
38054;BME280;23859;50.672;7.164;2022-08-03T13:28:38;100539.41;;;33.78;34.53
38054;BME280;23859;50.672;7.164;2022-08-03T13:31:05;100535.84;;;33.72;34.02
38054;BME280;23859;50.672;7.164;2022-08-03T13:33:31;100531.63;;;33.80;34.33
38054;BME280;23859;50.672;7.164;2022-08-03T13:35:57;100532.41;;;33.57;34.21